Time;durP1;ratioP1;P1;durP2;ratioP2;P2;SDS_P1;SDS_P2;PMS_P1;PMS_P2;Temp;Humidity;BMP_temperature;BMP_pressure;BME280_temperature;BME280_humidity;BME280_pressure;Samples;Min_cycle;Max_cycle;Signal;HPM_P1;HPM_P2
2024/02/17 00:01:55;;;;;;;7.60;4.60;;;;;;;7.01;76.99;97033.30;108746;1272;25314;-74
2024/02/17 00:04:25;;;;;;;7.50;4.80;;;;;;;7.02;76.69;97042.55;108687;1272;23612;-74
2024/02/17 00:06:59;;;;;;;8.40;4.70;;;;;;;7.01;76.79;97038.42;108698;1266;22531;-74
2024/02/17 00:09:30;;;;;;;6.20;4.40;;;;;;;7.00;76.71;97040.42;108738;1266;22536;-74
2024/02/17 00:12:02;;;;;;;6.80;4.60;;;;;;;6.97;76.60;97035.89;108793;1271;22563;-74
2024/02/17 00:14:34;;;;;;;8.70;4.50;;;;;;;6.93;76.58;97039.13;108880;1271;22560;-73
2024/02/17 00:17:06;;;;;;;7.40;4.40;;;;;;;6.90;76.57;97046.67;108749;1271;174050;-74
2024/02/17 00:19:38;;;;;;;7.40;4.80;;;;;;;6.92;76.76;97041.80;108730;1271;23007;-74
2024/02/17 00:22:09;;;;;;;7.70;3.90;;;;;;;6.93;76.74;97045.14;108729;1265;22651;-74
2024/02/17 00:24:43;;;;;;;8.00;4.80;;;;;;;6.94;76.80;97041.41;108736;1271;22563;-73
2024/02/17 00:27:17;;;;;;;7.90;4.20;;;;;;;6.93;76.66;97045.17;108705;1271;22573;-74
2024/02/17 00:29:48;;;;;;;7.80;4.00;;;;;;;6.90;76.67;97040.30;108668;1271;22569;-74
2024/02/17 00:32:22;;;;;;;7.30;4.30;;;;;;;6.88;76.74;97033.82;108741;1271;25496;-73
2024/02/17 00:34:53;;;;;;;5.40;3.60;;;;;;;6.85;76.69;97031.31;108843;1271;22530;-73
2024/02/17 00:37:24;;;;;;;7.10;4.60;;;;;;;6.90;76.94;97034.71;108850;1271;24190;-74
2024/02/17 00:39:58;;;;;;;7.80;4.40;;;;;;;6.91;76.92;97039.27;108890;1268;23041;-73
2024/02/17 00:42:31;;;;;;;7.60;4.80;;;;;;;6.91;76.82;97039.84;108878;1268;23329;-73
2024/02/17 00:45:06;;;;;;;7.00;4.30;;;;;;;6.92;76.90;97041.80;108838;1271;22572;-73
2024/02/17 00:47:38;;;;;;;5.90;3.90;;;;;;;6.94;76.89;97042.20;108787;1268;22561;-74
2024/02/17 00:50:11;;;;;;;8.90;3.70;;;;;;;6.97;76.71;97047.23;108751;1261;22568;-73
2024/02/17 00:52:42;;;;;;;6.70;4.50;;;;;;;6.97;76.66;97041.44;108746;1266;22524;-74
2024/02/17 00:55:14;;;;;;;5.20;3.30;;;;;;;6.99;76.43;97044.04;108798;1271;26665;-73
2024/02/17 00:57:46;;;;;;;7.40;4.50;;;;;;;7.01;76.59;97038.95;108850;1266;23496;-74
2024/02/17 01:00:22;;;;;;;7.30;4.50;;;;;;;7.04;76.41;97045.92;108812;1268;22595;-73
2024/02/17 01:02:55;;;;;;;7.90;4.50;;;;;;;7.06;76.38;97050.63;108922;1268;24420;-74
2024/02/17 01:05:26;;;;;;;6.60;4.10;;;;;;;7.08;76.32;97046.01;108887;1271;23308;-73
2024/02/17 01:07:57;;;;;;;6.30;3.80;;;;;;;7.11;76.11;97045.89;108831;1272;24202;-73
2024/02/17 01:10:28;;;;;;;5.00;2.80;;;;;;;7.09;75.93;97045.29;108768;1268;22528;-73
2024/02/17 01:13:00;;;;;;;6.00;3.70;;;;;;;7.05;75.85;97038.33;108716;1271;22528;-73
2024/02/17 01:15:31;;;;;;;6.40;3.70;;;;;;;7.00;75.72;97050.96;108792;1265;22550;-73
2024/02/17 01:18:02;;;;;;;6.70;4.10;;;;;;;6.96;75.78;97039.58;108815;1268;22521;-73
2024/02/17 01:20:33;;;;;;;7.50;4.70;;;;;;;6.91;75.75;97045.63;108836;1271;22539;-73
2024/02/17 01:23:17;;;;;;;5.80;4.10;;;;;;;6.89;75.82;97049.48;108871;1271;22566;-73
2024/02/17 01:25:48;;;;;;;8.70;4.40;;;;;;;6.85;76.03;97053.04;108836;1266;22649;-73
2024/02/17 01:28:19;;;;;;;7.00;3.70;;;;;;;6.83;75.93;97051.10;108821;1271;22524;-74
2024/02/17 01:30:50;;;;;;;8.00;4.20;;;;;;;6.76;76.00;97049.38;108809;1271;27663;-73
2024/02/17 01:33:22;;;;;;;7.70;4.80;;;;;;;6.72;76.23;97055.43;108859;1264;22633;-74
2024/02/17 01:35:54;;;;;;;6.10;4.00;;;;;;;6.69;76.12;97056.17;108898;1272;22523;-73
2024/02/17 01:38:25;;;;;;;7.20;4.30;;;;;;;6.64;76.18;97057.76;108875;1272;26652;-74
2024/02/17 01:40:58;;;;;;;8.40;5.20;;;;;;;6.64;76.41;97060.77;108883;1266;22534;-73
2024/02/17 01:43:29;;;;;;;8.00;4.10;;;;;;;6.66;76.26;97062.47;108841;1271;22537;-74
2024/02/17 01:46:00;;;;;;;5.00;2.90;;;;;;;6.69;76.19;97058.03;108847;1271;25292;-74
2024/02/17 01:48:31;;;;;;;5.60;3.60;;;;;;;6.75;76.14;97057.75;108766;1271;22528;-73
2024/02/17 01:51:05;;;;;;;6.50;4.00;;;;;;;6.79;75.91;97056.13;108756;1271;22544;-74
2024/02/17 01:53:39;;;;;;;6.00;3.50;;;;;;;6.79;75.84;97060.87;108712;1272;22514;-73
2024/02/17 01:56:11;;;;;;;4.90;3.10;;;;;;;6.79;75.70;97058.49;108825;1265;22539;-73
2024/02/17 01:58:42;;;;;;;6.60;3.80;;;;;;;6.82;75.61;97059.96;108747;1271;22548;-74
2024/02/17 02:01:13;;;;;;;4.70;2.70;;;;;;;6.84;75.40;97059.45;108753;1271;22527;-74
2024/02/17 02:03:47;;;;;;;7.10;4.10;;;;;;;6.81;75.37;97069.06;108766;1265;22559;-74
2024/02/17 02:06:23;;;;;;;7.70;4.50;;;;;;;6.80;75.35;97065.05;108752;1271;22523;-74
2024/02/17 02:08:55;;;;;;;6.30;3.90;;;;;;;6.77;75.20;97066.48;108725;1268;25416;-74
2024/02/17 02:11:26;;;;;;;7.50;4.10;;;;;;;6.76;75.26;97069.52;108746;1271;22545;-74
2024/02/17 02:14:14;;;;;;;7.10;3.90;;;;;;;6.79;75.23;97064.55;108724;1266;22523;-74
2024/02/17 02:16:48;;;;;;;6.40;4.00;;;;;;;6.83;75.12;97069.34;108642;1271;22528;-74
2024/02/17 02:19:22;;;;;;;5.50;4.20;;;;;;;6.82;74.93;97073.70;108611;1271;22519;-74
2024/02/17 02:21:53;;;;;;;6.90;4.00;;;;;;;6.81;74.86;97072.11;108692;1271;24392;-74
2024/02/17 02:24:25;;;;;;;5.10;4.10;;;;;;;6.80;74.94;97070.89;108628;1262;22701;-74
2024/02/17 02:26:56;;;;;;;7.10;4.00;;;;;;;6.79;74.81;97073.04;108616;1271;24256;-74
2024/02/17 02:29:27;;;;;;;5.50;3.40;;;;;;;6.75;74.65;97070.91;108606;1268;24260;-74
2024/02/17 02:32:01;;;;;;;6.80;3.90;;;;;;;6.75;74.79;97067.77;108677;1271;23482;-75
2024/02/17 02:34:32;;;;;;;6.90;3.30;;;;;;;6.79;74.66;97061.91;108662;1271;22536;-74
2024/02/17 02:37:04;;;;;;;5.60;3.80;;;;;;;6.81;74.43;97054.25;108660;1271;25034;-74
2024/02/17 02:39:37;;;;;;;5.40;3.10;;;;;;;6.79;74.44;97060.81;108688;1271;25379;-74
2024/02/17 02:42:08;;;;;;;5.80;3.20;;;;;;;6.75;74.38;97059.20;108663;1271;22541;-74
2024/02/17 02:44:39;;;;;;;4.30;3.10;;;;;;;6.75;74.30;97058.11;108680;1272;22534;-74
2024/02/17 02:47:13;;;;;;;7.90;4.10;;;;;;;6.78;74.31;97066.70;108653;1272;22543;-74
2024/02/17 02:49:44;;;;;;;5.90;3.50;;;;;;;6.77;74.22;97063.52;108664;1266;22551;-74
2024/02/17 02:52:18;;;;;;;6.80;3.10;;;;;;;6.79;74.50;97061.97;108679;1272;22524;-74
2024/02/17 02:54:49;;;;;;;5.60;3.90;;;;;;;6.79;74.19;97065.72;108596;1265;25509;-74
2024/02/17 02:57:20;;;;;;;7.00;4.40;;;;;;;6.82;74.14;97065.53;108698;1271;22536;-74
2024/02/17 02:59:51;;;;;;;7.70;4.30;;;;;;;6.85;74.06;97066.04;108632;1268;22524;-74
2024/02/17 03:02:22;;;;;;;6.30;4.10;;;;;;;6.81;73.95;97069.80;108697;1271;24411;-74
2024/02/17 03:04:54;;;;;;;7.30;3.70;;;;;;;6.79;74.16;97069.20;108655;1268;25488;-76
2024/02/17 03:07:27;;;;;;;8.40;4.20;;;;;;;6.80;74.04;97063.73;108747;1271;22981;-74
2024/02/17 03:10:04;;;;;;;6.80;4.70;;;;;;;6.76;74.16;97063.61;108677;1268;22518;-74
2024/02/17 03:12:38;;;;;;;6.30;4.00;;;;;;;6.73;74.07;97062.50;108723;1271;22539;-74
2024/02/17 03:15:14;;;;;;;5.30;3.60;;;;;;;6.70;74.00;97068.63;108654;1271;22528;-74
2024/02/17 03:17:47;;;;;;;6.40;3.60;;;;;;;6.69;73.95;97071.62;108648;1271;22540;-74
2024/02/17 03:20:19;;;;;;;7.70;4.40;;;;;;;6.64;73.95;97070.71;108658;1271;25562;-74
2024/02/17 03:22:51;;;;;;;5.70;4.30;;;;;;;6.59;74.03;97074.30;108653;1271;25481;-74
2024/02/17 03:25:22;;;;;;;5.40;3.40;;;;;;;6.53;73.99;97072.91;108630;1265;22546;-74
2024/02/17 03:27:53;;;;;;;6.60;4.40;;;;;;;6.49;74.22;97076.72;108721;1271;22615;-74
2024/02/17 03:30:24;;;;;;;3.60;2.50;;;;;;;6.44;74.26;97078.78;108693;1268;22536;-74
2024/02/17 03:32:58;;;;;;;6.10;3.60;;;;;;;6.40;74.45;97078.93;108713;1271;24234;-74
2024/02/17 03:35:29;;;;;;;4.70;3.10;;;;;;;6.37;74.49;97082.38;108689;1261;24293;-73
2024/02/17 03:38:02;;;;;;;4.00;2.80;;;;;;;6.38;74.57;97077.12;108644;1272;22435;-74
2024/02/17 03:40:33;;;;;;;5.50;3.60;;;;;;;6.38;74.56;97083.86;108661;1272;22594;-73
2024/02/17 03:43:07;;;;;;;5.20;2.60;;;;;;;6.37;74.67;97084.73;108718;1271;22571;-74
2024/02/17 03:45:38;;;;;;;6.60;3.30;;;;;;;6.37;74.82;97083.79;108721;1271;24308;-74
2024/02/17 03:48:12;;;;;;;5.40;3.80;;;;;;;6.37;74.75;97085.11;108731;1271;22634;-74
2024/02/17 03:50:44;;;;;;;6.90;3.70;;;;;;;6.35;74.75;97091.02;108702;1267;22543;-74
2024/02/17 03:53:15;;;;;;;4.80;2.90;;;;;;;6.33;74.92;97089.23;108704;1271;22540;-74
2024/02/17 03:55:46;;;;;;;7.30;3.70;;;;;;;6.33;74.99;97093.08;108759;1271;22525;-74
2024/02/17 03:58:19;;;;;;;3.90;2.50;;;;;;;6.36;74.93;97097.04;108738;1271;22554;-74
2024/02/17 04:00:50;;;;;;;5.10;2.80;;;;;;;6.36;74.83;97104.37;108758;1266;23299;-74
2024/02/17 04:03:22;;;;;;;6.30;4.30;;;;;;;6.38;74.77;97106.45;108784;1271;22575;-74
2024/02/17 04:05:53;;;;;;;7.50;3.80;;;;;;;6.38;74.72;97100.91;108728;1265;22528;-74
2024/02/17 04:08:24;;;;;;;7.50;3.70;;;;;;;6.33;74.74;97109.20;108719;1271;22537;-74
2024/02/17 04:10:57;;;;;;;6.60;4.70;;;;;;;6.27;74.74;97108.05;108716;1271;22528;-74
2024/02/17 04:13:31;;;;;;;4.60;3.30;;;;;;;6.22;74.78;97118.14;108727;1271;25263;-74
2024/02/17 04:16:04;;;;;;;7.40;4.70;;;;;;;6.21;75.05;97113.18;108695;1271;24448;-74
2024/02/17 04:18:35;;;;;;;6.60;4.50;;;;;;;6.21;74.83;97113.98;108756;1271;22531;-74
2024/02/17 04:21:08;;;;;;;5.50;3.50;;;;;;;6.24;75.04;97111.48;108760;1268;24249;-74
2024/02/17 04:23:42;;;;;;;5.90;4.20;;;;;;;6.30;75.14;97112.73;108799;1271;22536;-74
2024/02/17 04:26:14;;;;;;;6.80;4.20;;;;;;;6.29;74.98;97111.92;108727;1271;22524;-74
2024/02/17 04:28:47;;;;;;;6.10;4.00;;;;;;;6.29;75.05;97115.34;108770;1266;22532;-74
2024/02/17 04:31:20;;;;;;;7.30;5.00;;;;;;;6.27;74.87;97111.27;108799;1268;22518;-74
2024/02/17 04:33:52;;;;;;;7.40;4.70;;;;;;;6.24;75.18;97103.02;108712;1266;24308;-75
2024/02/17 04:36:23;;;;;;;5.50;3.50;;;;;;;6.23;75.21;97115.91;108763;1271;25051;-74
2024/02/17 04:38:54;;;;;;;6.90;4.40;;;;;;;6.22;75.00;97113.52;108739;1250;22531;-74
2024/02/17 04:41:25;;;;;;;5.70;3.90;;;;;;;6.21;75.10;97118.13;108718;1270;22636;-75
2024/02/17 04:43:59;;;;;;;5.00;3.70;;;;;;;6.20;74.99;97117.90;108695;1262;22933;-74
2024/02/17 04:46:30;;;;;;;6.10;3.80;;;;;;;6.19;75.07;97118.55;108682;1272;22542;-74
2024/02/17 04:49:02;;;;;;;7.40;4.30;;;;;;;6.17;75.02;97120.68;108752;1270;22603;-75
2024/02/17 04:51:32;;;;;;;5.60;3.60;;;;;;;6.20;75.36;97114.41;108738;1272;23022;-74
2024/02/17 04:54:06;;;;;;;6.20;4.40;;;;;;;6.23;75.14;97114.52;108790;1272;24101;-74
2024/02/17 04:56:37;;;;;;;5.00;3.40;;;;;;;6.24;75.12;97118.54;108744;1272;25870;-74
2024/02/17 04:59:11;;;;;;;5.10;2.90;;;;;;;6.24;74.89;97121.23;108762;1264;22539;-74
2024/02/17 05:01:44;;;;;;;6.50;3.90;;;;;;;6.24;74.96;97123.71;108766;1271;25258;-74
2024/02/17 05:04:16;;;;;;;6.60;3.60;;;;;;;6.26;74.80;97125.73;108670;1273;25618;-74
2024/02/17 05:06:50;;;;;;;7.50;4.50;;;;;;;6.28;74.82;97122.77;108625;1273;24215;-74
2024/02/17 05:09:21;;;;;;;7.40;4.00;;;;;;;6.29;74.71;97129.83;108649;1269;22559;-74
2024/02/17 05:11:55;;;;;;;8.40;3.80;;;;;;;6.28;74.56;97135.13;108669;1273;22539;-74
2024/02/17 05:14:27;;;;;;;7.60;4.50;;;;;;;6.26;74.62;97133.52;108502;1273;23449;-74
2024/02/17 05:16:58;;;;;;;6.40;4.10;;;;;;;6.24;74.63;97127.87;108624;1273;22530;-74
2024/02/17 05:19:29;;;;;;;6.50;4.10;;;;;;;6.21;74.71;97128.77;108605;1273;22531;-74
2024/02/17 05:22:02;;;;;;;7.30;4.60;;;;;;;6.22;74.59;97122.10;108648;1266;22556;-74
2024/02/17 05:24:43;;;;;;;6.30;4.10;;;;;;;6.24;74.52;97126.18;108687;1273;22611;-74
2024/02/17 05:27:15;;;;;;;5.60;3.40;;;;;;;6.29;74.57;97129.09;108639;1266;22542;-74
2024/02/17 05:29:46;;;;;;;7.30;4.60;;;;;;;6.30;74.43;97126.80;108469;1271;22521;-74
2024/02/17 05:32:18;;;;;;;5.30;3.30;;;;;;;6.33;74.46;97130.46;108580;1273;23406;-73
2024/02/17 05:34:49;;;;;;;5.40;3.90;;;;;;;6.35;74.30;97131.85;108662;1273;22543;-74
2024/02/17 05:37:20;;;;;;;7.10;5.00;;;;;;;6.36;74.16;97136.08;108635;1269;22549;-73
2024/02/17 05:39:51;;;;;;;7.30;4.40;;;;;;;6.40;74.18;97132.86;108584;1273;22531;-74
2024/02/17 05:42:23;;;;;;;6.80;4.30;;;;;;;6.42;73.82;97140.75;108611;1272;22539;-72
2024/02/17 05:44:54;;;;;;;9.60;4.60;;;;;;;6.47;74.01;97136.99;108630;1272;22632;-73
2024/02/17 05:47:26;;;;;;;8.00;4.90;;;;;;;6.51;73.85;97142.27;108593;1271;22788;-73
2024/02/17 05:49:57;;;;;;;5.40;3.70;;;;;;;6.55;73.78;97144.50;108608;1272;22579;-73
2024/02/17 05:52:28;;;;;;;5.70;3.30;;;;;;;6.60;73.63;97145.50;108603;1271;22595;-73
2024/02/17 05:54:59;;;;;;;6.30;4.20;;;;;;;6.65;73.58;97148.48;108612;1273;25331;-74
2024/02/17 05:57:33;;;;;;;6.80;4.90;;;;;;;6.70;73.38;97152.79;108596;1271;22578;-73
2024/02/17 06:00:08;;;;;;;7.20;4.90;;;;;;;6.74;73.27;97154.79;108630;1266;22586;-73
2024/02/17 06:02:40;;;;;;;7.90;4.30;;;;;;;6.78;73.09;97155.39;108852;1272;22553;-73
2024/02/17 06:05:11;;;;;;;7.70;4.60;;;;;;;6.84;73.01;97158.11;108711;1268;22566;-73
2024/02/17 06:07:45;;;;;;;8.40;5.40;;;;;;;6.87;72.85;97155.63;108703;1272;22633;-73
2024/02/17 06:10:18;;;;;;;4.90;3.40;;;;;;;6.90;72.93;97164.48;108671;1271;22520;-73
2024/02/17 06:12:49;;;;;;;8.20;4.80;;;;;;;7.09;72.71;97166.13;108738;1271;22621;-73
2024/02/17 06:15:20;;;;;;;7.90;5.30;;;;;;;7.33;72.73;97168.73;108698;1268;22811;-73
2024/02/17 06:21:10;;;;;;;6.10;4.20;;;;;;;7.56;72.06;97169.40;108715;1271;22534;-73
2024/02/17 06:23:32;;;;;;;8.70;5.90;;;;;;;7.95;70.65;97174.56;108629;1271;22540;-73
2024/02/17 06:26:18;;;;;;;7.40;4.90;;;;;;;7.91;69.65;97176.42;108716;1271;22523;-73
2024/02/17 06:28:49;;;;;;;8.30;5.20;;;;;;;7.75;68.86;97182.42;108685;1272;25460;-74
2024/02/17 06:31:20;;;;;;;7.00;3.90;;;;;;;7.59;68.92;97185.70;108730;1271;22967;-73
2024/02/17 06:33:52;;;;;;;6.80;4.30;;;;;;;7.50;68.92;97194.98;108703;1272;22530;-73
2024/02/17 06:36:23;;;;;;;9.10;6.00;;;;;;;7.47;69.17;97196.16;108680;1272;22528;-73
2024/02/17 06:38:56;;;;;;;8.40;5.60;;;;;;;7.50;69.40;97203.37;108713;1272;22535;-73
2024/02/17 06:41:30;;;;;;;8.00;5.00;;;;;;;7.53;69.23;97200.61;108809;1252;24337;-73
2024/02/17 06:44:01;;;;;;;10.40;5.50;;;;;;;7.53;68.99;97204.88;108842;1272;22544;-73
2024/02/17 06:46:32;;;;;;;8.80;5.40;;;;;;;7.54;68.94;97210.64;108841;1271;22949;-73
2024/02/17 06:49:07;;;;;;;8.70;5.40;;;;;;;7.56;68.91;97215.41;108635;1268;24859;-72
2024/02/17 06:51:38;;;;;;;8.10;4.20;;;;;;;7.57;68.51;97211.84;108759;1268;22527;-73
2024/02/17 06:54:09;;;;;;;10.70;6.50;;;;;;;7.57;67.99;97212.15;108838;1257;22541;-73
2024/02/17 06:56:40;;;;;;;10.30;6.70;;;;;;;7.57;68.10;97216.76;108854;1271;23007;-73
2024/02/17 06:59:11;;;;;;;8.70;5.60;;;;;;;7.59;67.92;97223.58;108830;1271;22566;-73
2024/02/17 07:01:42;;;;;;;10.50;6.10;;;;;;;7.60;67.85;97219.17;108851;1268;22523;-73
2024/02/17 07:04:15;;;;;;;8.40;6.10;;;;;;;7.62;67.89;97218.67;108862;1271;22525;-73
2024/02/17 07:06:49;;;;;;;8.50;6.10;;;;;;;7.62;67.67;97223.70;108829;1269;23466;-73
2024/02/17 07:09:24;;;;;;;7.30;4.70;;;;;;;7.63;67.50;97227.70;108702;1271;26626;-73
2024/02/17 07:11:57;;;;;;;5.10;3.50;;;;;;;7.63;67.31;97222.43;108697;1268;22718;-73
2024/02/17 07:14:29;;;;;;;8.70;3.50;;;;;;;7.63;66.74;97218.20;108823;1271;22525;-73
2024/02/17 07:17:00;;;;;;;8.40;5.70;;;;;;;7.63;66.19;97226.55;108802;1265;23316;-73
2024/02/17 07:19:33;;;;;;;8.00;3.80;;;;;;;7.69;66.42;97224.30;108831;1271;22646;-73
2024/02/17 07:22:08;;;;;;;7.90;4.20;;;;;;;7.70;66.11;97238.18;108801;1272;22537;-73
2024/02/17 07:24:42;;;;;;;6.90;3.90;;;;;;;7.71;65.80;97236.52;108808;1262;24771;-73
2024/02/17 07:27:14;;;;;;;8.60;5.60;;;;;;;7.74;66.10;97243.36;108889;1271;22677;-73
2024/02/17 07:29:48;;;;;;;9.90;5.40;;;;;;;7.80;66.18;97246.14;108850;1266;22528;-73
2024/02/17 07:32:22;;;;;;;8.80;5.80;;;;;;;7.87;66.63;97252.09;108846;1267;24229;-73
2024/02/17 07:34:55;;;;;;;6.50;5.10;;;;;;;7.90;66.68;97246.02;108817;1271;22534;-74
2024/02/17 07:37:28;;;;;;;7.30;5.20;;;;;;;7.88;67.01;97249.30;108892;1272;22660;-73
2024/02/17 07:40:07;;;;;;;8.00;4.70;;;;;;;7.82;67.23;97249.80;108784;1265;23426;-73
2024/02/17 07:42:41;;;;;;;8.00;5.30;;;;;;;7.71;67.60;97259.74;108763;1272;22638;-73
2024/02/17 07:45:13;;;;;;;9.20;6.20;;;;;;;7.68;67.82;97252.84;108876;1271;22541;-72
2024/02/17 07:47:48;;;;;;;8.30;5.50;;;;;;;7.65;68.21;97253.55;108839;1272;22532;-73
2024/02/17 07:50:21;;;;;;;9.70;6.70;;;;;;;7.64;68.50;97257.49;108822;1272;22564;-73
2024/02/17 07:52:53;;;;;;;9.50;6.10;;;;;;;7.65;68.61;97258.09;108731;1267;22525;-72
2024/02/17 07:55:27;;;;;;;8.10;5.50;;;;;;;7.65;68.61;97261.45;109024;1267;25342;-73
2024/02/17 07:58:01;;;;;;;8.70;5.50;;;;;;;7.66;68.64;97264.27;108750;1271;22542;-73
2024/02/17 08:00:32;;;;;;;10.60;6.10;;;;;;;7.69;68.83;97266.25;108743;1270;22535;-73
2024/02/17 08:03:03;;;;;;;10.30;7.10;;;;;;;7.74;68.98;97262.11;108728;1271;22525;-72
2024/02/17 08:05:36;;;;;;;11.40;6.70;;;;;;;7.83;69.08;97261.33;108616;1271;22547;-72
2024/02/17 08:08:08;;;;;;;10.20;6.20;;;;;;;7.94;69.16;97264.11;108741;1271;22517;-73
2024/02/17 08:10:42;;;;;;;10.30;6.20;;;;;;;8.02;69.10;97271.50;108751;1271;22528;-73
2024/02/17 08:13:16;;;;;;;10.30;6.70;;;;;;;8.09;68.98;97270.00;108702;1267;22547;-74
2024/02/17 08:15:48;;;;;;;11.70;8.10;;;;;;;8.11;68.99;97270.17;108595;1270;25476;-73
2024/02/17 08:18:22;;;;;;;11.20;7.10;;;;;;;8.13;69.18;97271.48;108681;1271;24735;-73
2024/02/17 08:20:57;;;;;;;12.60;6.30;;;;;;;8.22;69.26;97271.64;108692;1271;24265;-74
2024/02/17 08:23:29;;;;;;;13.00;8.30;;;;;;;8.26;68.91;97268.23;108713;1270;25259;-74
2024/02/17 08:26:01;;;;;;;13.60;9.00;;;;;;;8.27;68.89;97276.59;108722;1271;22534;-73
2024/02/17 08:28:32;;;;;;;13.90;7.90;;;;;;;8.33;69.02;97275.42;108684;1271;24373;-74
2024/02/17 08:31:06;;;;;;;13.30;8.70;;;;;;;8.40;69.10;97275.24;108767;1271;25180;-73
2024/02/17 08:33:38;;;;;;;10.20;5.20;;;;;;;8.53;69.28;97274.11;108692;1271;22525;-73
2024/02/17 08:36:10;;;;;;;9.90;6.20;;;;;;;8.63;69.06;97280.10;108729;1271;22517;-73
2024/02/17 08:38:44;;;;;;;10.40;6.80;;;;;;;8.70;69.06;97288.03;108654;1267;22706;-73
2024/02/17 08:41:19;;;;;;;10.50;7.10;;;;;;;8.76;69.09;97289.27;108594;1266;22530;-73
2024/02/17 08:43:50;;;;;;;10.40;6.10;;;;;;;8.78;69.02;97290.83;108711;1267;23483;-73
2024/02/17 08:46:21;;;;;;;10.10;6.90;;;;;;;8.78;68.83;97293.63;108736;1267;25349;-73
2024/02/17 08:48:54;;;;;;;9.70;6.60;;;;;;;8.79;68.88;97298.39;108679;1271;25304;-72
2024/02/17 08:51:25;;;;;;;11.70;8.50;;;;;;;8.84;68.86;97300.75;108713;1271;22587;-73
2024/02/17 08:53:57;;;;;;;25.50;15.10;;;;;;;8.84;68.78;97305.45;108723;1271;22511;-72
2024/02/17 08:56:32;;;;;;;14.20;8.80;;;;;;;8.85;68.72;97308.16;108676;1264;22539;-73
2024/02/17 08:59:05;;;;;;;15.80;9.20;;;;;;;8.86;68.58;97307.77;108686;1267;22597;-73
2024/02/17 09:01:36;;;;;;;9.30;6.80;;;;;;;8.90;68.61;97309.08;108763;1264;22719;-73
2024/02/17 09:04:08;;;;;;;11.10;6.80;;;;;;;8.97;68.60;97318.48;108721;1271;22543;-73
2024/02/17 09:06:39;;;;;;;11.50;6.80;;;;;;;9.05;68.62;97318.43;108711;1267;23305;-72
2024/02/17 09:09:10;;;;;;;9.40;6.80;;;;;;;9.15;68.70;97318.20;108724;1268;22630;-73
2024/02/17 09:11:47;;;;;;;11.70;7.70;;;;;;;9.26;68.64;97320.25;108715;1270;25277;-72
2024/02/17 09:14:20;;;;;;;9.30;6.70;;;;;;;9.35;68.60;97326.72;108743;1271;22520;-73
2024/02/17 09:16:55;;;;;;;11.30;7.30;;;;;;;9.44;68.68;97326.73;108729;1271;22555;-72
2024/02/17 09:19:26;;;;;;;11.40;7.60;;;;;;;9.54;68.85;97328.03;108568;1271;22989;-73
2024/02/17 09:21:57;;;;;;;11.00;6.90;;;;;;;9.59;68.62;97331.89;108712;1271;22526;-73
2024/02/17 09:24:29;;;;;;;11.50;7.00;;;;;;;9.65;68.62;97337.16;108690;1270;22544;-73
2024/02/17 09:27:01;;;;;;;8.30;5.10;;;;;;;9.72;68.43;97331.88;108736;1271;22539;-72
2024/02/17 09:29:33;;;;;;;11.60;6.90;;;;;;;9.74;67.95;97331.89;108736;1271;22562;-73
2024/02/17 09:32:05;;;;;;;10.00;6.70;;;;;;;9.77;68.14;97331.38;108724;1272;23288;-73
2024/02/17 09:34:37;;;;;;;11.80;6.60;;;;;;;9.87;68.01;97337.27;108683;1267;22524;-73
2024/02/17 09:37:10;;;;;;;10.30;6.80;;;;;;;9.92;67.46;97340.15;108746;1267;25397;-73
2024/02/17 09:39:47;;;;;;;12.80;7.60;;;;;;;9.94;67.44;97344.88;108725;1270;22602;-73
2024/02/17 09:42:20;;;;;;;9.40;5.80;;;;;;;9.97;67.27;97351.67;108765;1271;22538;-72
2024/02/17 09:44:55;;;;;;;8.60;4.90;;;;;;;9.96;66.16;97347.70;108724;1271;25496;-73
2024/02/17 09:47:28;;;;;;;7.50;4.50;;;;;;;9.88;65.87;97354.39;108741;1270;23079;-73
2024/02/17 09:50:02;;;;;;;11.20;6.20;;;;;;;9.86;65.50;97353.20;108727;1267;24661;-73
2024/02/17 09:52:40;;;;;;;9.90;5.80;;;;;;;9.78;65.24;97365.05;108718;1267;22521;-73
2024/02/17 09:55:13;;;;;;;9.30;5.90;;;;;;;9.71;65.60;97366.92;108738;1264;22609;-73
2024/02/17 09:57:48;;;;;;;8.70;5.60;;;;;;;9.62;65.05;97370.92;108724;1271;22526;-72
2024/02/17 10:00:24;;;;;;;8.40;4.90;;;;;;;9.50;64.61;97377.19;108799;1271;22537;-72
2024/02/17 10:02:59;;;;;;;8.20;4.70;;;;;;;9.38;65.07;97380.98;108745;1267;22716;-73
2024/02/17 10:05:32;;;;;;;8.70;5.80;;;;;;;9.25;65.73;97381.14;108837;1271;22523;-73
2024/02/17 10:08:07;;;;;;;10.60;5.80;;;;;;;9.15;66.15;97392.10;108825;1264;22528;-73
2024/02/17 10:10:43;;;;;;;10.90;7.10;;;;;;;9.07;66.83;97389.42;108878;1269;22538;-73
2024/02/17 10:13:20;;;;;;;11.50;6.90;;;;;;;8.98;67.63;97392.34;108835;1267;25399;-73
2024/02/17 10:15:53;;;;;;;11.10;7.10;;;;;;;8.88;68.34;97403.35;108808;1265;25396;-74
2024/02/17 10:18:26;;;;;;;10.90;7.60;;;;;;;8.80;68.93;97404.15;108747;1264;22535;-74
2024/02/17 10:21:00;;;;;;;9.70;6.70;;;;;;;8.73;69.56;97404.12;108785;1265;22535;-73
2024/02/17 10:23:37;;;;;;;12.00;7.80;;;;;;;8.66;70.27;97407.63;108764;1272;24305;-73
2024/02/17 10:26:10;;;;;;;11.00;6.60;;;;;;;8.59;70.82;97406.08;108832;1264;24300;-73
2024/02/17 10:28:53;;;;;;;9.20;6.40;;;;;;;8.55;71.75;97409.08;108855;1268;22552;-73
2024/02/17 10:31:28;;;;;;;10.70;6.90;;;;;;;8.50;72.42;97408.13;108758;1264;22539;-73
2024/02/17 10:34:00;;;;;;;9.10;6.70;;;;;;;8.48;72.83;97409.32;108876;1271;22570;-73
2024/02/17 10:36:33;;;;;;;12.00;7.90;;;;;;;8.45;73.88;97408.31;108856;1267;22555;-73
2024/02/17 10:39:11;;;;;;;10.00;7.10;;;;;;;8.40;74.32;97417.29;109011;1271;25091;-73
2024/02/17 10:41:43;;;;;;;11.00;6.70;;;;;;;8.43;74.71;97417.27;108839;1271;22535;-73
2024/02/17 10:44:17;;;;;;;11.90;6.70;;;;;;;8.38;74.73;97414.30;108828;1271;25300;-73
2024/02/17 10:46:51;;;;;;;10.60;6.80;;;;;;;8.33;75.22;97419.61;108855;1271;24910;-73
2024/02/17 10:49:33;;;;;;;10.60;6.40;;;;;;;8.28;75.71;97427.48;108817;1271;22549;-73
2024/02/17 10:52:09;;;;;;;10.20;6.60;;;;;;;8.24;76.17;97425.12;108702;1271;25372;-73
2024/02/17 10:54:47;;;;;;;9.60;6.90;;;;;;;8.24;76.58;97429.61;108703;1266;22851;-74
2024/02/17 10:57:23;;;;;;;9.80;6.80;;;;;;;8.22;76.89;97433.45;108652;1269;21797;-73
2024/02/17 11:00:00;;;;;;;14.20;8.70;;;;;;;8.18;77.23;97432.84;108705;1267;22538;-73
2024/02/17 11:02:34;;;;;;;11.90;7.60;;;;;;;8.11;77.80;97437.55;108649;1271;22563;-73
2024/02/17 11:05:08;;;;;;;14.00;7.70;;;;;;;8.09;78.14;97439.96;108760;1271;22940;-73
2024/02/17 11:07:42;;;;;;;11.90;7.60;;;;;;;8.06;78.33;97437.81;108538;1265;25234;-73
2024/02/17 11:10:15;;;;;;;13.00;8.00;;;;;;;8.02;78.77;97439.08;108567;1271;23291;-73
2024/02/17 11:12:53;;;;;;;14.40;9.70;;;;;;;7.99;79.16;97436.95;108699;1271;22539;-73
2024/02/17 11:15:25;;;;;;;11.10;7.60;;;;;;;7.98;79.77;97434.35;108594;1271;22572;-73
2024/02/17 11:17:59;;;;;;;11.80;8.00;;;;;;;7.94;80.03;97432.98;108607;1271;23994;-73
2024/02/17 11:20:32;;;;;;;13.60;8.90;;;;;;;7.90;80.60;97434.29;108742;1271;23743;-73
2024/02/17 11:23:04;;;;;;;10.80;7.30;;;;;;;7.88;81.23;97433.30;108667;1271;22539;-73
2024/02/17 11:25:38;;;;;;;11.60;7.70;;;;;;;7.83;81.37;97432.27;108736;1271;22595;-73
2024/02/17 11:28:20;;;;;;;15.90;9.40;;;;;;;7.81;81.72;97432.98;108719;1264;22538;-73
2024/02/17 11:30:54;;;;;;;9.70;6.10;;;;;;;7.79;83.01;97431.26;108787;1271;25225;-73
2024/02/17 11:33:31;;;;;;;9.90;6.20;;;;;;;7.71;84.38;97432.98;108735;1268;25411;-73
2024/02/17 11:36:03;;;;;;;10.90;7.10;;;;;;;7.67;84.43;97437.93;108775;1264;22523;-73
2024/02/17 11:38:40;;;;;;;11.60;7.70;;;;;;;7.67;85.05;97436.40;108728;1264;22520;-73
2024/02/17 11:41:20;;;;;;;12.80;7.90;;;;;;;7.68;85.09;97435.40;108685;1271;24219;-73
2024/02/17 11:43:54;;;;;;;12.10;7.10;;;;;;;7.69;85.36;97434.42;108623;1271;22520;-73
2024/02/17 11:46:25;;;;;;;10.80;6.70;;;;;;;7.71;86.21;97440.27;108698;1265;22576;-73
2024/02/17 11:48:59;;;;;;;13.80;7.70;;;;;;;7.72;86.66;97440.73;108733;1271;22550;-73
2024/02/17 11:51:35;;;;;;;10.20;5.80;;;;;;;7.71;87.34;97441.67;108700;1271;25313;-73
2024/02/17 11:54:08;;;;;;;12.50;6.90;;;;;;;7.71;88.30;97445.27;108715;1271;22521;-73
2024/02/17 11:56:43;;;;;;;11.30;6.90;;;;;;;7.73;88.42;97443.34;108785;1271;22547;-73
2024/02/17 11:59:16;;;;;;;7.00;4.60;;;;;;;7.73;88.40;97452.15;108730;1271;22520;-73
2024/02/17 12:01:52;;;;;;;9.20;4.60;;;;;;;7.73;88.77;97452.48;108682;1271;25418;-73